Quincy, Illinois
Current Conditions -  °F | °C
As of 7:54 AM on Thursday 29 Jan 2015 (Local Time) from KUIN Reporting Station
Overcast Overcast  
Wind Chill: -4°   Ceiling: 2000
Heat Index:   Visibility: 8mi
Dew Point: -1°   Wind: 18mph
Humidity: 79%   Direction: 310°NW
Pressure: 30.04"   Gusts: NA
Location:  39.94°N, 91.39°W
Report Text: KUIN 291354Z AUTO 31016KT 8SM OVC020 02/M01 A3004 RMK AO2 PK WND 32027/1308 SLP177 T00221011
Loading
Personal Weather Stations






























Interactive Weather Map New forecast layout! Learn more

10-Day Weather Forecast

Advertisements
Track Severe Weather on mobile